sensor_id;sensor_type;location;lat;lon;timestamp;P1;durP1;ratioP1;P2;durP2;ratioP2
26271;SDS011;13997;48.902;12.472;2022-11-20T00:00:56;50.58;;;24.65;;
26271;SDS011;13997;48.902;12.472;2022-11-20T00:03:21;48.17;;;23.75;;
26271;SDS011;13997;48.902;12.472;2022-11-20T00:05:47;47.42;;;22.67;;
26271;SDS011;13997;48.902;12.472;2022-11-20T00:08:13;54.83;;;25.42;;
26271;SDS011;13997;48.902;12.472;2022-11-20T00:10:39;51.47;;;25.05;;
26271;SDS011;13997;48.902;12.472;2022-11-20T00:13:06;50.95;;;25.90;;
26271;SDS011;13997;48.902;12.472;2022-11-20T00:15:32;51.80;;;25.40;;
26271;SDS011;13997;48.902;12.472;2022-11-20T00:17:58;47.45;;;24.50;;
26271;SDS011;13997;48.902;12.472;2022-11-20T00:20:24;47.60;;;25.10;;
26271;SDS011;13997;48.902;12.472;2022-11-20T00:22:50;55.38;;;26.10;;
26271;SDS011;13997;48.902;12.472;2022-11-20T00:25:15;50.40;;;24.60;;
26271;SDS011;13997;48.902;12.472;2022-11-20T00:27:42;49.63;;;24.45;;
26271;SDS011;13997;48.902;12.472;2022-11-20T00:30:08;52.33;;;24.80;;
26271;SDS011;13997;48.902;12.472;2022-11-20T00:32:34;49.92;;;24.25;;
26271;SDS011;13997;48.902;12.472;2022-11-20T00:34:59;46.88;;;23.35;;
26271;SDS011;13997;48.902;12.472;2022-11-20T00:37:25;46.97;;;23.83;;
26271;SDS011;13997;48.902;12.472;2022-11-20T00:39:51;43.10;;;23.17;;
26271;SDS011;13997;48.902;12.472;2022-11-20T00:42:17;43.65;;;23.17;;
26271;SDS011;13997;48.902;12.472;2022-11-20T00:44:42;44.25;;;22.73;;
26271;SDS011;13997;48.902;12.472;2022-11-20T00:47:08;44.40;;;23.40;;
26271;SDS011;13997;48.902;12.472;2022-11-20T00:49:33;49.03;;;24.83;;
26271;SDS011;13997;48.902;12.472;2022-11-20T00:51:59;46.95;;;24.73;;
26271;SDS011;13997;48.902;12.472;2022-11-20T00:54:24;43.03;;;23.60;;
26271;SDS011;13997;48.902;12.472;2022-11-20T00:56:52;45.58;;;24.33;;
26271;SDS011;13997;48.902;12.472;2022-11-20T00:59:18;42.92;;;23.92;;
26271;SDS011;13997;48.902;12.472;2022-11-20T01:01:44;43.25;;;22.58;;
26271;SDS011;13997;48.902;12.472;2022-11-20T01:04:10;46.40;;;24.45;;
26271;SDS011;13997;48.902;12.472;2022-11-20T01:06:37;44.20;;;24.08;;
26271;SDS011;13997;48.902;12.472;2022-11-20T01:09:05;43.55;;;22.50;;
26271;SDS011;13997;48.902;12.472;2022-11-20T01:11:36;45.15;;;23.35;;
26271;SDS011;13997;48.902;12.472;2022-11-20T01:14:05;44.25;;;24.48;;
26271;SDS011;13997;48.902;12.472;2022-11-20T01:16:33;47.40;;;24.83;;
26271;SDS011;13997;48.902;12.472;2022-11-20T01:19:02;47.78;;;23.58;;
26271;SDS011;13997;48.902;12.472;2022-11-20T01:21:33;45.95;;;24.25;;
26271;SDS011;13997;48.902;12.472;2022-11-20T01:26:27;54.17;;;24.02;;
26271;SDS011;13997;48.902;12.472;2022-11-20T01:28:55;51.67;;;24.33;;
26271;SDS011;13997;48.902;12.472;2022-11-20T01:31:23;48.65;;;24.13;;
26271;SDS011;13997;48.902;12.472;2022-11-20T01:33:51;43.92;;;22.73;;
26271;SDS011;13997;48.902;12.472;2022-11-20T01:36:19;54.60;;;25.40;;
26271;SDS011;13997;48.902;12.472;2022-11-20T01:38:46;48.97;;;25.05;;
26271;SDS011;13997;48.902;12.472;2022-11-20T01:41:12;49.45;;;25.33;;
26271;SDS011;13997;48.902;12.472;2022-11-20T01:43:59;46.42;;;24.27;;
26271;SDS011;13997;48.902;12.472;2022-11-20T01:46:25;46.00;;;24.15;;
26271;SDS011;13997;48.902;12.472;2022-11-20T01:52:00;46.88;;;25.20;;
26271;SDS011;13997;48.902;12.472;2022-11-20T01:56:38;43.10;;;23.08;;
26271;SDS011;13997;48.902;12.472;2022-11-20T01:59:08;48.17;;;25.80;;
26271;SDS011;13997;48.902;12.472;2022-11-20T02:01:36;47.97;;;23.98;;
26271;SDS011;13997;48.902;12.472;2022-11-20T02:04:04;44.03;;;23.23;;
26271;SDS011;13997;48.902;12.472;2022-11-20T02:06:32;46.33;;;25.63;;
26271;SDS011;13997;48.902;12.472;2022-11-20T02:09:03;49.47;;;24.77;;
26271;SDS011;13997;48.902;12.472;2022-11-20T02:11:30;48.38;;;25.15;;
26271;SDS011;13997;48.902;12.472;2022-11-20T02:13:56;50.42;;;24.63;;
26271;SDS011;13997;48.902;12.472;2022-11-20T02:16:23;50.33;;;25.23;;
26271;SDS011;13997;48.902;12.472;2022-11-20T02:18:59;48.65;;;25.15;;
26271;SDS011;13997;48.902;12.472;2022-11-20T02:21:33;54.38;;;26.73;;
26271;SDS011;13997;48.902;12.472;2022-11-20T02:26:42;57.97;;;26.95;;
26271;SDS011;13997;48.902;12.472;2022-11-20T02:32:18;51.58;;;26.30;;
26271;SDS011;13997;48.902;12.472;2022-11-20T02:35:06;60.13;;;27.77;;
26271;SDS011;13997;48.902;12.472;2022-11-20T02:37:34;60.70;;;29.25;;
26271;SDS011;13997;48.902;12.472;2022-11-20T02:40:03;59.60;;;29.33;;
26271;SDS011;13997;48.902;12.472;2022-11-20T02:42:29;65.82;;;29.80;;
26271;SDS011;13997;48.902;12.472;2022-11-20T02:44:55;59.03;;;28.20;;
26271;SDS011;13997;48.902;12.472;2022-11-20T02:47:20;60.55;;;29.38;;
26271;SDS011;13997;48.902;12.472;2022-11-20T02:49:46;60.80;;;29.38;;
26271;SDS011;13997;48.902;12.472;2022-11-20T02:52:12;55.78;;;27.45;;
26271;SDS011;13997;48.902;12.472;2022-11-20T02:54:37;59.05;;;28.45;;
26271;SDS011;13997;48.902;12.472;2022-11-20T02:57:03;59.95;;;29.55;;
26271;SDS011;13997;48.902;12.472;2022-11-20T02:59:28;54.35;;;28.27;;
26271;SDS011;13997;48.902;12.472;2022-11-20T03:01:54;55.25;;;28.33;;
26271;SDS011;13997;48.902;12.472;2022-11-20T03:04:20;55.78;;;27.25;;
26271;SDS011;13997;48.902;12.472;2022-11-20T03:06:45;56.03;;;28.23;;
26271;SDS011;13997;48.902;12.472;2022-11-20T03:09:11;56.13;;;29.33;;
26271;SDS011;13997;48.902;12.472;2022-11-20T03:11:37;53.75;;;27.88;;
26271;SDS011;13997;48.902;12.472;2022-11-20T03:14:03;57.05;;;27.48;;
26271;SDS011;13997;48.902;12.472;2022-11-20T03:16:30;52.78;;;26.48;;
26271;SDS011;13997;48.902;12.472;2022-11-20T03:18:56;52.05;;;27.33;;
26271;SDS011;13997;48.902;12.472;2022-11-20T03:21:22;51.55;;;27.13;;
26271;SDS011;13997;48.902;12.472;2022-11-20T03:23:47;54.65;;;26.77;;
26271;SDS011;13997;48.902;12.472;2022-11-20T03:26:23;51.47;;;26.52;;
26271;SDS011;13997;48.902;12.472;2022-11-20T03:28:52;48.88;;;26.35;;
26271;SDS011;13997;48.902;12.472;2022-11-20T03:31:23;49.33;;;26.13;;
26271;SDS011;13997;48.902;12.472;2022-11-20T03:33:50;54.65;;;27.77;;
26271;SDS011;13997;48.902;12.472;2022-11-20T03:36:17;51.38;;;26.60;;
26271;SDS011;13997;48.902;12.472;2022-11-20T03:38:44;52.78;;;26.15;;
26271;SDS011;13997;48.902;12.472;2022-11-20T03:41:12;48.75;;;26.60;;
26271;SDS011;13997;48.902;12.472;2022-11-20T03:43:46;52.55;;;27.50;;
26271;SDS011;13997;48.902;12.472;2022-11-20T03:46:15;52.03;;;27.13;;
26271;SDS011;13997;48.902;12.472;2022-11-20T03:48:41;53.85;;;27.75;;
26271;SDS011;13997;48.902;12.472;2022-11-20T03:51:10;52.35;;;28.15;;
26271;SDS011;13997;48.902;12.472;2022-11-20T03:53:43;49.65;;;26.67;;
26271;SDS011;13997;48.902;12.472;2022-11-20T03:56:10;52.20;;;27.30;;
26271;SDS011;13997;48.902;12.472;2022-11-20T03:58:37;49.83;;;26.05;;
26271;SDS011;13997;48.902;12.472;2022-11-20T04:01:11;45.75;;;24.42;;
26271;SDS011;13997;48.902;12.472;2022-11-20T04:03:39;46.17;;;24.63;;
26271;SDS011;13997;48.902;12.472;2022-11-20T04:06:07;53.78;;;26.08;;
26271;SDS011;13997;48.902;12.472;2022-11-20T04:08:34;48.72;;;25.20;;
26271;SDS011;13997;48.902;12.472;2022-11-20T04:13:40;46.60;;;24.63;;
26271;SDS011;13997;48.902;12.472;2022-11-20T04:16:07;45.50;;;24.50;;
26271;SDS011;13997;48.902;12.472;2022-11-20T04:18:34;44.45;;;24.50;;
26271;SDS011;13997;48.902;12.472;2022-11-20T04:21:01;46.78;;;25.40;;
26271;SDS011;13997;48.902;12.472;2022-11-20T04:23:27;47.20;;;23.75;;
26271;SDS011;13997;48.902;12.472;2022-11-20T04:25:52;45.83;;;24.52;;
26271;SDS011;13997;48.902;12.472;2022-11-20T04:28:18;49.95;;;24.88;;
26271;SDS011;13997;48.902;12.472;2022-11-20T04:30:44;43.50;;;24.92;;
26271;SDS011;13997;48.902;12.472;2022-11-20T04:33:10;44.70;;;24.80;;
26271;SDS011;13997;48.902;12.472;2022-11-20T04:35:36;45.42;;;23.55;;
26271;SDS011;13997;48.902;12.472;2022-11-20T04:38:03;48.08;;;25.92;;
26271;SDS011;13997;48.902;12.472;2022-11-20T04:40:29;51.53;;;25.83;;
26271;SDS011;13997;48.902;12.472;2022-11-20T04:42:55;46.00;;;25.00;;
26271;SDS011;13997;48.902;12.472;2022-11-20T04:45:21;45.08;;;23.92;;
26271;SDS011;13997;48.902;12.472;2022-11-20T04:47:47;46.22;;;23.90;;
26271;SDS011;13997;48.902;12.472;2022-11-20T04:50:13;47.30;;;25.08;;
26271;SDS011;13997;48.902;12.472;2022-11-20T04:52:39;49.20;;;25.48;;
26271;SDS011;13997;48.902;12.472;2022-11-20T04:55:05;46.42;;;25.10;;
26271;SDS011;13997;48.902;12.472;2022-11-20T04:57:31;45.85;;;23.38;;
26271;SDS011;13997;48.902;12.472;2022-11-20T04:59:56;49.33;;;24.98;;
26271;SDS011;13997;48.902;12.472;2022-11-20T05:02:22;47.13;;;24.77;;
26271;SDS011;13997;48.902;12.472;2022-11-20T05:04:48;49.83;;;25.77;;
26271;SDS011;13997;48.902;12.472;2022-11-20T05:07:14;52.50;;;26.40;;
26271;SDS011;13997;48.902;12.472;2022-11-20T05:09:39;51.03;;;26.70;;
26271;SDS011;13997;48.902;12.472;2022-11-20T05:12:06;49.00;;;25.92;;
26271;SDS011;13997;48.902;12.472;2022-11-20T05:14:33;47.65;;;24.75;;
26271;SDS011;13997;48.902;12.472;2022-11-20T05:16:58;48.80;;;25.75;;
26271;SDS011;13997;48.902;12.472;2022-11-20T05:19:24;51.90;;;25.90;;
26271;SDS011;13997;48.902;12.472;2022-11-20T05:21:50;50.58;;;25.13;;
26271;SDS011;13997;48.902;12.472;2022-11-20T05:24:16;49.65;;;25.25;;
26271;SDS011;13997;48.902;12.472;2022-11-20T05:26:42;53.55;;;26.05;;
26271;SDS011;13997;48.902;12.472;2022-11-20T05:29:09;49.22;;;26.08;;
26271;SDS011;13997;48.902;12.472;2022-11-20T05:31:36;51.22;;;26.02;;
26271;SDS011;13997;48.902;12.472;2022-11-20T05:34:05;48.67;;;25.63;;
26271;SDS011;13997;48.902;12.472;2022-11-20T05:36:31;48.50;;;25.27;;
26271;SDS011;13997;48.902;12.472;2022-11-20T05:38:57;58.78;;;27.75;;
26271;SDS011;13997;48.902;12.472;2022-11-20T05:41:23;52.50;;;26.17;;
26271;SDS011;13997;48.902;12.472;2022-11-20T05:43:50;49.80;;;25.80;;
26271;SDS011;13997;48.902;12.472;2022-11-20T05:46:17;49.17;;;26.10;;
26271;SDS011;13997;48.902;12.472;2022-11-20T05:48:44;50.67;;;26.02;;
26271;SDS011;13997;48.902;12.472;2022-11-20T05:51:12;49.30;;;26.52;;
26271;SDS011;13997;48.902;12.472;2022-11-20T05:53:39;54.80;;;27.27;;
26271;SDS011;13997;48.902;12.472;2022-11-20T05:56:06;57.28;;;27.15;;
26271;SDS011;13997;48.902;12.472;2022-11-20T05:58:34;54.33;;;27.17;;
26271;SDS011;13997;48.902;12.472;2022-11-20T06:01:08;53.22;;;27.20;;
26271;SDS011;13997;48.902;12.472;2022-11-20T06:03:37;50.10;;;25.50;;
26271;SDS011;13997;48.902;12.472;2022-11-20T06:06:04;54.00;;;26.73;;
26271;SDS011;13997;48.902;12.472;2022-11-20T06:08:31;57.08;;;27.05;;
26271;SDS011;13997;48.902;12.472;2022-11-20T06:10:57;52.55;;;26.98;;
26271;SDS011;13997;48.902;12.472;2022-11-20T06:13:27;50.08;;;25.90;;
26271;SDS011;13997;48.902;12.472;2022-11-20T06:15:53;50.42;;;25.45;;
26271;SDS011;13997;48.902;12.472;2022-11-20T06:18:18;59.92;;;27.73;;
26271;SDS011;13997;48.902;12.472;2022-11-20T06:20:45;54.13;;;26.80;;
26271;SDS011;13997;48.902;12.472;2022-11-20T06:23:10;59.22;;;27.25;;
26271;SDS011;13997;48.902;12.472;2022-11-20T06:25:37;49.78;;;24.70;;
26271;SDS011;13997;48.902;12.472;2022-11-20T06:28:06;57.15;;;26.45;;
26271;SDS011;13997;48.902;12.472;2022-11-20T06:30:32;53.83;;;27.13;;
26271;SDS011;13997;48.902;12.472;2022-11-20T06:32:58;56.75;;;26.40;;
26271;SDS011;13997;48.902;12.472;2022-11-20T06:35:24;53.10;;;25.13;;
26271;SDS011;13997;48.902;12.472;2022-11-20T06:37:50;49.70;;;24.02;;
26271;SDS011;13997;48.902;12.472;2022-11-20T06:40:15;50.83;;;25.55;;
26271;SDS011;13997;48.902;12.472;2022-11-20T06:42:41;52.83;;;25.67;;
26271;SDS011;13997;48.902;12.472;2022-11-20T06:45:07;48.72;;;24.65;;
26271;SDS011;13997;48.902;12.472;2022-11-20T06:47:33;52.33;;;25.85;;
26271;SDS011;13997;48.902;12.472;2022-11-20T06:49:58;56.08;;;25.65;;
26271;SDS011;13997;48.902;12.472;2022-11-20T06:52:24;50.13;;;25.48;;
26271;SDS011;13997;48.902;12.472;2022-11-20T06:54:50;56.33;;;26.55;;
26271;SDS011;13997;48.902;12.472;2022-11-20T06:57:15;59.75;;;27.00;;
26271;SDS011;13997;48.902;12.472;2022-11-20T06:59:41;60.35;;;27.38;;
26271;SDS011;13997;48.902;12.472;2022-11-20T07:02:10;57.47;;;27.35;;
26271;SDS011;13997;48.902;12.472;2022-11-20T07:04:37;56.80;;;26.42;;
26271;SDS011;13997;48.902;12.472;2022-11-20T07:07:03;54.85;;;25.73;;
26271;SDS011;13997;48.902;12.472;2022-11-20T07:09:29;53.70;;;25.40;;
26271;SDS011;13997;48.902;12.472;2022-11-20T07:11:54;50.85;;;25.67;;
26271;SDS011;13997;48.902;12.472;2022-11-20T07:14:20;51.47;;;26.20;;
26271;SDS011;13997;48.902;12.472;2022-11-20T07:16:45;60.03;;;29.10;;
26271;SDS011;13997;48.902;12.472;2022-11-20T07:19:11;55.42;;;26.00;;
26271;SDS011;13997;48.902;12.472;2022-11-20T07:21:36;67.05;;;30.23;;
26271;SDS011;13997;48.902;12.472;2022-11-20T07:24:02;92.32;;;39.83;;
26271;SDS011;13997;48.902;12.472;2022-11-20T07:26:28;88.25;;;37.45;;
26271;SDS011;13997;48.902;12.472;2022-11-20T07:28:53;68.60;;;30.73;;
26271;SDS011;13997;48.902;12.472;2022-11-20T07:31:19;57.75;;;27.10;;
26271;SDS011;13997;48.902;12.472;2022-11-20T07:33:45;56.47;;;25.60;;
26271;SDS011;13997;48.902;12.472;2022-11-20T07:36:11;51.05;;;24.90;;
26271;SDS011;13997;48.902;12.472;2022-11-20T07:38:37;51.17;;;25.42;;
26271;SDS011;13997;48.902;12.472;2022-11-20T07:41:03;46.10;;;23.13;;
26271;SDS011;13997;48.902;12.472;2022-11-20T07:43:29;53.97;;;23.85;;
26271;SDS011;13997;48.902;12.472;2022-11-20T07:45:55;49.00;;;23.38;;
26271;SDS011;13997;48.902;12.472;2022-11-20T07:48:21;49.60;;;23.45;;
26271;SDS011;13997;48.902;12.472;2022-11-20T07:50:47;48.97;;;23.17;;
26271;SDS011;13997;48.902;12.472;2022-11-20T07:53:13;51.22;;;23.52;;
26271;SDS011;13997;48.902;12.472;2022-11-20T07:55:38;48.78;;;22.50;;
26271;SDS011;13997;48.902;12.472;2022-11-20T07:58:04;54.13;;;23.67;;
26271;SDS011;13997;48.902;12.472;2022-11-20T08:00:30;48.35;;;23.77;;
26271;SDS011;13997;48.902;12.472;2022-11-20T08:02:56;50.35;;;23.95;;
26271;SDS011;13997;48.902;12.472;2022-11-20T08:05:21;50.15;;;25.10;;
26271;SDS011;13997;48.902;12.472;2022-11-20T08:07:47;48.45;;;23.80;;
26271;SDS011;13997;48.902;12.472;2022-11-20T08:10:14;59.35;;;26.63;;
26271;SDS011;13997;48.902;12.472;2022-11-20T08:12:44;53.13;;;24.42;;
26271;SDS011;13997;48.902;12.472;2022-11-20T08:15:32;54.63;;;23.77;;
26271;SDS011;13997;48.902;12.472;2022-11-20T08:20:28;54.60;;;24.98;;
26271;SDS011;13997;48.902;12.472;2022-11-20T08:22:57;63.03;;;29.33;;
26271;SDS011;13997;48.902;12.472;2022-11-20T08:25:24;65.43;;;28.83;;
26271;SDS011;13997;48.902;12.472;2022-11-20T08:27:50;71.85;;;35.03;;
26271;SDS011;13997;48.902;12.472;2022-11-20T08:30:16;56.35;;;24.92;;
26271;SDS011;13997;48.902;12.472;2022-11-20T08:32:42;55.17;;;25.60;;
26271;SDS011;13997;48.902;12.472;2022-11-20T08:35:08;54.95;;;23.85;;
26271;SDS011;13997;48.902;12.472;2022-11-20T08:37:33;71.78;;;32.38;;
26271;SDS011;13997;48.902;12.472;2022-11-20T08:39:59;72.50;;;31.55;;
26271;SDS011;13997;48.902;12.472;2022-11-20T08:42:25;65.10;;;29.60;;
26271;SDS011;13997;48.902;12.472;2022-11-20T08:44:50;88.35;;;36.00;;
26271;SDS011;13997;48.902;12.472;2022-11-20T08:47:16;78.05;;;35.97;;
26271;SDS011;13997;48.902;12.472;2022-11-20T08:49:41;74.72;;;32.72;;
26271;SDS011;13997;48.902;12.472;2022-11-20T08:52:07;86.53;;;37.60;;
26271;SDS011;13997;48.902;12.472;2022-11-20T08:54:32;101.45;;;40.88;;
26271;SDS011;13997;48.902;12.472;2022-11-20T08:56:58;65.75;;;29.83;;
26271;SDS011;13997;48.902;12.472;2022-11-20T08:59:24;60.42;;;28.55;;
26271;SDS011;13997;48.902;12.472;2022-11-20T09:01:49;61.00;;;26.88;;
26271;SDS011;13997;48.902;12.472;2022-11-20T09:04:15;65.35;;;30.08;;
26271;SDS011;13997;48.902;12.472;2022-11-20T09:06:40;75.88;;;30.13;;
26271;SDS011;13997;48.902;12.472;2022-11-20T09:09:06;62.00;;;28.42;;
26271;SDS011;13997;48.902;12.472;2022-11-20T09:11:32;71.18;;;27.95;;
26271;SDS011;13997;48.902;12.472;2022-11-20T09:13:59;65.85;;;26.88;;
26271;SDS011;13997;48.902;12.472;2022-11-20T09:16:27;108.03;;;36.28;;
26271;SDS011;13997;48.902;12.472;2022-11-20T09:18:52;70.03;;;28.95;;
26271;SDS011;13997;48.902;12.472;2022-11-20T09:21:18;70.65;;;27.52;;
26271;SDS011;13997;48.902;12.472;2022-11-20T09:23:44;70.45;;;27.67;;
26271;SDS011;13997;48.902;12.472;2022-11-20T09:26:11;73.97;;;29.90;;
26271;SDS011;13997;48.902;12.472;2022-11-20T09:28:38;82.65;;;29.50;;
26271;SDS011;13997;48.902;12.472;2022-11-20T09:31:05;52.13;;;24.65;;
26271;SDS011;13997;48.902;12.472;2022-11-20T09:33:32;46.75;;;23.25;;
26271;SDS011;13997;48.902;12.472;2022-11-20T09:35:57;52.92;;;25.80;;
26271;SDS011;13997;48.902;12.472;2022-11-20T09:38:23;58.83;;;28.73;;
26271;SDS011;13997;48.902;12.472;2022-11-20T09:40:51;65.68;;;32.95;;
26271;SDS011;13997;48.902;12.472;2022-11-20T09:43:55;83.32;;;41.65;;
26271;SDS011;13997;48.902;12.472;2022-11-20T09:49:05;70.85;;;34.28;;
26271;SDS011;13997;48.902;12.472;2022-11-20T09:52:00;92.88;;;43.58;;
26271;SDS011;13997;48.902;12.472;2022-11-20T09:54:46;62.42;;;25.35;;
26271;SDS011;13997;48.902;12.472;2022-11-20T09:57:13;58.17;;;27.38;;
26271;SDS011;13997;48.902;12.472;2022-11-20T09:59:45;64.18;;;33.17;;
26271;SDS011;13997;48.902;12.472;2022-11-20T10:04:53;63.20;;;30.40;;
26271;SDS011;13997;48.902;12.472;2022-11-20T10:07:34;62.35;;;31.05;;
26271;SDS011;13997;48.902;12.472;2022-11-20T10:10:35;59.28;;;25.45;;
26271;SDS011;13997;48.902;12.472;2022-11-20T10:25:15;57.55;;;26.25;;
26271;SDS011;13997;48.902;12.472;2022-11-20T10:30:31;62.92;;;27.73;;
26271;SDS011;13997;48.902;12.472;2022-11-20T10:33:08;53.97;;;25.58;;
26271;SDS011;13997;48.902;12.472;2022-11-20T10:35:43;50.13;;;24.15;;
26271;SDS011;13997;48.902;12.472;2022-11-20T10:40:49;44.70;;;23.45;;
26271;SDS011;13997;48.902;12.472;2022-11-20T10:43:39;50.08;;;23.02;;
26271;SDS011;13997;48.902;12.472;2022-11-20T10:46:08;46.13;;;21.92;;
26271;SDS011;13997;48.902;12.472;2022-11-20T10:48:42;50.92;;;26.90;;
26271;SDS011;13997;48.902;12.472;2022-11-20T10:56:40;50.08;;;22.95;;
26271;SDS011;13997;48.902;12.472;2022-11-20T11:01:51;61.47;;;29.73;;
26271;SDS011;13997;48.902;12.472;2022-11-20T11:06:49;61.85;;;31.42;;
26271;SDS011;13997;48.902;12.472;2022-11-20T11:09:24;56.75;;;29.67;;
26271;SDS011;13997;48.902;12.472;2022-11-20T11:11:57;60.67;;;31.13;;
26271;SDS011;13997;48.902;12.472;2022-11-20T11:14:23;58.58;;;30.52;;
26271;SDS011;13997;48.902;12.472;2022-11-20T11:16:55;49.65;;;26.65;;
26271;SDS011;13997;48.902;12.472;2022-11-20T11:19:22;51.38;;;26.75;;
26271;SDS011;13997;48.902;12.472;2022-11-20T11:21:49;45.97;;;24.27;;
26271;SDS011;13997;48.902;12.472;2022-11-20T11:24:21;44.13;;;22.92;;
26271;SDS011;13997;48.902;12.472;2022-11-20T11:26:58;39.40;;;22.83;;
26271;SDS011;13997;48.902;12.472;2022-11-20T11:29:31;42.03;;;23.17;;
26271;SDS011;13997;48.902;12.472;2022-11-20T11:34:59;36.88;;;21.00;;
26271;SDS011;13997;48.902;12.472;2022-11-20T11:37:26;40.85;;;21.63;;
26271;SDS011;13997;48.902;12.472;2022-11-20T11:40:01;48.00;;;23.95;;
26271;SDS011;13997;48.902;12.472;2022-11-20T11:42:29;38.58;;;23.45;;
26271;SDS011;13997;48.902;12.472;2022-11-20T11:44:56;50.38;;;27.45;;
26271;SDS011;13997;48.902;12.472;2022-11-20T11:50:20;50.63;;;28.75;;
26271;SDS011;13997;48.902;12.472;2022-11-20T11:53:02;50.67;;;29.55;;
26271;SDS011;13997;48.902;12.472;2022-11-20T11:55:50;43.60;;;25.83;;
26271;SDS011;13997;48.902;12.472;2022-11-20T12:03:52;57.20;;;32.28;;
26271;SDS011;13997;48.902;12.472;2022-11-20T12:06:24;57.58;;;32.80;;
26271;SDS011;13997;48.902;12.472;2022-11-20T12:11:29;44.92;;;23.77;;
26271;SDS011;13997;48.902;12.472;2022-11-20T12:14:29;41.92;;;24.75;;
26271;SDS011;13997;48.902;12.472;2022-11-20T12:17:07;42.67;;;24.65;;
26271;SDS011;13997;48.902;12.472;2022-11-20T12:19:35;43.80;;;24.37;;
26271;SDS011;13997;48.902;12.472;2022-11-20T12:22:18;21.13;;;11.50;;
26271;SDS011;13997;48.902;12.472;2022-11-20T12:25:09;11.88;;;6.80;;
26271;SDS011;13997;48.902;12.472;2022-11-20T12:33:48;8.88;;;5.63;;
26271;SDS011;13997;48.902;12.472;2022-11-20T12:53:31;8.07;;;4.30;;
26271;SDS011;13997;48.902;12.472;2022-11-20T12:56:06;5.25;;;3.70;;
26271;SDS011;13997;48.902;12.472;2022-11-20T13:06:39;8.32;;;4.45;;
26271;SDS011;13997;48.902;12.472;2022-11-20T13:09:08;6.50;;;3.95;;
26271;SDS011;13997;48.902;12.472;2022-11-20T13:11:46;7.22;;;4.38;;
26271;SDS011;13997;48.902;12.472;2022-11-20T13:17:05;7.63;;;3.78;;
26271;SDS011;13997;48.902;12.472;2022-11-20T13:19:36;7.10;;;4.70;;
26271;SDS011;13997;48.902;12.472;2022-11-20T13:22:02;7.05;;;4.00;;
26271;SDS011;13997;48.902;12.472;2022-11-20T13:24:29;7.68;;;4.55;;
26271;SDS011;13997;48.902;12.472;2022-11-20T13:27:46;8.68;;;4.88;;
26271;SDS011;13997;48.902;12.472;2022-11-20T13:32:52;6.63;;;2.95;;
26271;SDS011;13997;48.902;12.472;2022-11-20T13:38:00;7.95;;;4.88;;
26271;SDS011;13997;48.902;12.472;2022-11-20T13:40:50;9.63;;;4.97;;
26271;SDS011;13997;48.902;12.472;2022-11-20T13:43:19;6.70;;;3.75;;
26271;SDS011;13997;48.902;12.472;2022-11-20T13:46:05;6.47;;;3.95;;
26271;SDS011;13997;48.902;12.472;2022-11-20T13:48:42;4.65;;;3.10;;
26271;SDS011;13997;48.902;12.472;2022-11-20T13:51:31;4.68;;;3.00;;
26271;SDS011;13997;48.902;12.472;2022-11-20T14:02:00;5.50;;;3.10;;
26271;SDS011;13997;48.902;12.472;2022-11-20T14:04:29;4.80;;;3.20;;
26271;SDS011;13997;48.902;12.472;2022-11-20T14:06:58;5.78;;;3.28;;
26271;SDS011;13997;48.902;12.472;2022-11-20T14:09:26;8.18;;;3.50;;
26271;SDS011;13997;48.902;12.472;2022-11-20T14:12:01;4.93;;;3.03;;
26271;SDS011;13997;48.902;12.472;2022-11-20T14:14:28;9.27;;;4.22;;
26271;SDS011;13997;48.902;12.472;2022-11-20T14:19:47;6.45;;;3.40;;
26271;SDS011;13997;48.902;12.472;2022-11-20T14:22:19;6.90;;;4.13;;
26271;SDS011;13997;48.902;12.472;2022-11-20T14:24:47;7.03;;;4.05;;
26271;SDS011;13997;48.902;12.472;2022-11-20T14:27:14;9.57;;;4.82;;
26271;SDS011;13997;48.902;12.472;2022-11-20T14:29:46;12.10;;;6.60;;
26271;SDS011;13997;48.902;12.472;2022-11-20T14:32:17;10.60;;;6.05;;
26271;SDS011;13997;48.902;12.472;2022-11-20T14:34:44;9.07;;;4.90;;
26271;SDS011;13997;48.902;12.472;2022-11-20T14:37:13;9.77;;;5.00;;
26271;SDS011;13997;48.902;12.472;2022-11-20T14:39:52;4.95;;;3.50;;
26271;SDS011;13997;48.902;12.472;2022-11-20T14:42:27;5.40;;;3.97;;
26271;SDS011;13997;48.902;12.472;2022-11-20T14:44:59;6.18;;;3.97;;
26271;SDS011;13997;48.902;12.472;2022-11-20T14:47:26;6.25;;;3.95;;
26271;SDS011;13997;48.902;12.472;2022-11-20T14:49:54;6.28;;;3.90;;
26271;SDS011;13997;48.902;12.472;2022-11-20T14:52:22;7.70;;;4.38;;
26271;SDS011;13997;48.902;12.472;2022-11-20T14:54:50;8.93;;;5.43;;
26271;SDS011;13997;48.902;12.472;2022-11-20T14:57:28;9.25;;;4.93;;
26271;SDS011;13997;48.902;12.472;2022-11-20T15:02:40;5.82;;;3.70;;
26271;SDS011;13997;48.902;12.472;2022-11-20T15:05:07;6.00;;;2.92;;
26271;SDS011;13997;48.902;12.472;2022-11-20T15:07:37;10.38;;;5.00;;
26271;SDS011;13997;48.902;12.472;2022-11-20T15:10:12;8.13;;;4.82;;
26271;SDS011;13997;48.902;12.472;2022-11-20T15:12:48;4.78;;;3.00;;
26271;SDS011;13997;48.902;12.472;2022-11-20T15:15:17;3.85;;;2.97;;
26271;SDS011;13997;48.902;12.472;2022-11-20T15:18:03;5.72;;;3.53;;
26271;SDS011;13997;48.902;12.472;2022-11-20T15:20:30;8.07;;;4.45;;
26271;SDS011;13997;48.902;12.472;2022-11-20T15:22:57;5.70;;;3.38;;
26271;SDS011;13997;48.902;12.472;2022-11-20T15:25:23;5.93;;;3.20;;
26271;SDS011;13997;48.902;12.472;2022-11-20T15:27:50;7.55;;;3.22;;
26271;SDS011;13997;48.902;12.472;2022-11-20T15:30:20;8.13;;;5.28;;
26271;SDS011;13997;48.902;12.472;2022-11-20T15:32:45;6.32;;;3.00;;
26271;SDS011;13997;48.902;12.472;2022-11-20T15:35:12;5.72;;;4.13;;
26271;SDS011;13997;48.902;12.472;2022-11-20T15:37:39;5.38;;;3.10;;
26271;SDS011;13997;48.902;12.472;2022-11-20T15:40:05;7.28;;;2.85;;
26271;SDS011;13997;48.902;12.472;2022-11-20T15:42:32;4.75;;;2.70;;
26271;SDS011;13997;48.902;12.472;2022-11-20T15:44:58;3.67;;;2.28;;
26271;SDS011;13997;48.902;12.472;2022-11-20T15:47:31;4.63;;;2.45;;
26271;SDS011;13997;48.902;12.472;2022-11-20T15:49:59;4.00;;;2.30;;
26271;SDS011;13997;48.902;12.472;2022-11-20T15:52:24;6.50;;;2.60;;
26271;SDS011;13997;48.902;12.472;2022-11-20T15:54:50;3.63;;;2.30;;
26271;SDS011;13997;48.902;12.472;2022-11-20T15:57:16;4.15;;;2.80;;
26271;SDS011;13997;48.902;12.472;2022-11-20T15:59:42;5.03;;;3.00;;
26271;SDS011;13997;48.902;12.472;2022-11-20T16:02:10;5.80;;;3.22;;
26271;SDS011;13997;48.902;12.472;2022-11-20T16:04:37;4.20;;;2.95;;
26271;SDS011;13997;48.902;12.472;2022-11-20T16:07:03;4.13;;;3.22;;
26271;SDS011;13997;48.902;12.472;2022-11-20T16:09:29;7.65;;;4.15;;
26271;SDS011;13997;48.902;12.472;2022-11-20T16:11:55;6.88;;;3.90;;
26271;SDS011;13997;48.902;12.472;2022-11-20T16:14:20;5.72;;;3.92;;
26271;SDS011;13997;48.902;12.472;2022-11-20T16:17:05;5.25;;;2.53;;
26271;SDS011;13997;48.902;12.472;2022-11-20T16:19:30;4.55;;;2.35;;
26271;SDS011;13997;48.902;12.472;2022-11-20T16:21:59;7.53;;;2.55;;